Date,TemperatureHighF,TemperatureAvgF,TemperatureLowF,DewpointHighF,DewpointAvgF,DewpointLowF,HumidityHigh,HumidityAvg,HumidityLow,PressureMaxIn,PressureMinIn,WindSpeedMaxMPH,WindSpeedAvgMPH,GustSpeedMaxMPH,PrecipitationSumIn
2013-1-1,24,23,22,20,19,17,89,81,74,30.19,30.07,21,11,24,0.00
2013-1-2,27,25,23,23,21,18,89,84,78,30.14,30.05,15,7,20,0.00
2013-1-3,32,29,25,27,25,22,91,86,80,30.11,30.00,24,13,30,0.00
2013-1-4,37,30,27,32,27,24,90,86,78,30.13,29.93,31,19,36,0.00
2013-1-5,37,31,22,34,28,20,92,85,77,30.22,29.88,23,5,24,0.03
2013-1-6,36,32,28,33,28,21,92,84,75,30.28,29.83,22,12,28,0.12
2013-1-7,39,33,23,33,28,19,86,80,70,30.29,29.94,38,18,43,0.17
2013-1-8,45,37,31,37,32,29,92,83,69,30.16,29.96,17,6,25,0.04
2013-1-9,40,38,37,36,33,30,86,81,75,30.44,29.84,29,17,33,0.04
2013-1-10,45,35,27,32,29,25,93,78,60,30.55,30.06,16,2,18,0.00
2013-1-11,47,40,35,46,39,32,100,96,78,30.05,29.66,17,5,22,0.28
2013-1-12,50,44,34,47,40,30,95,84,73,29.97,29.60,36,17,44,0.00
2013-1-13,34,31,27,31,28,23,93,87,83,30.03,29.86,22,8,25,0.00
2013-1-14,28,25,22,24,20,15,89,80,69,30.40,30.04,25,13,26,0.00
2013-1-15,31,25,18,23,19,13,83,77,71,30.43,30.09,24,12,27,0.00
2013-1-16,33,29,26,31,25,21,96,85,77,30.09,29.69,30,16,39,0.00
2013-1-17,27,20,17,22,14,10,89,80,72,30.39,30.04,22,16,32,0.00
2013-1-18,40,24,14,35,20,8,90,82,70,30.41,29.77,22,9,30,0.05
2013-1-19,40,36,29,37,34,26,95,91,79,29.84,29.48,29,12,37,0.01
2013-1-20,28,18,15,25,14,10,93,84,76,30.19,29.58,31,16,42,0.01
2013-1-21,15,10,4,13,8,1,91,89,86,30.17,30.02,22,14,27,0.00
2013-1-22,10,6,4,8,4,1,99,88,88,30.31,30.16,19,12,24,0.00
2013-1-23,18,14,10,16,12,8,92,91,89,30.30,30.10,24,13,30,0.00
2013-1-24,17,12,9,14,10,6,92,90,89,30.69,30.29,21,3,23,0.01
2013-1-25,22,16,11,21,14,8,94,91,88,30.50,29.99,13,4,18,0.01
2013-1-30,32,29,24,32,28,23,97,96,94,29.32,29.18,28,16,35,0.04
2013-1-31,24,20,18,23,19,17,100,94,93,29.93,29.32,25,18,30,0.04
2013-2-1,19,17,16,17,16,14,94,93,91,30.15,29.93,27,16,31,0.00
2013-2-6,28,26,21,24,21,16,94,82,71,30.29,30.22,13,4,16,0.00
2013-2-7,30,28,24,29,26,22,95,94,92,30.23,30.09,5,1,8,0.00
2013-2-8,25,21,8,22,18,6,94,90,80,30.44,30.12,10,3,15,0.00
2013-2-9,34,17,1,24,12,-2,92,81,63,30.46,30.24,10,2,14,0.02
2013-2-10,37,29,21,35,26,17,95,86,77,30.24,29.50,13,4,19,0.06
2013-2-11,41,35,30,40,33,25,97,92,80,29.84,29.39,22,13,32,0.06
2013-2-12,30,28,27,26,24,22,90,84,79,30.02,29.84,21,12,25,0.06
2013-2-13,37,33,27,33,30,24,92,87,79,29.88,29.70,18,10,22,0.02
2013-2-14,34,31,24,34,28,-100,100,93,90,29.93,29.61,30,-2,35,0.02
2013-2-15,24,22,18,23,20,15,95,91,84,30.17,29.93,22,12,26,0.02
2013-2-16,21,18,15,17,13,10,92,82,73,30.20,30.10,16,6,19,0.00
2013-2-17,21,17,12,15,12,7,88,82,74,30.24,30.13,11,3,17,0.00
2013-2-18,42,31,18,36,23,13,96,75,60,30.13,29.41,14,4,19,0.19
2013-2-19,38,26,18,37,25,16,100,95,92,29.95,29.25,27,16,34,0.42
2013-2-20,24,20,18,22,19,16,95,94,93,30.36,29.96,33,23,42,0.00
2013-2-21,23,20,15,21,19,13,94,93,91,30.48,30.33,21,5,28,0.00
2013-2-22,29,26,18,28,24,16,96,94,91,30.34,29.85,5,1,14,0.00
2013-2-23,30,28,26,29,27,24,97,96,94,29.88,29.79,12,5,15,0.00
2013-2-24,34,31,28,32,30,26,96,93,89,30.17,29.86,10,5,13,0.04
2013-2-25,36,32,23,32,29,21,94,90,80,30.23,30.15,10,2,12,0.03
2013-2-26,39,33,27,30,28,23,92,82,69,30.20,29.79,8,3,17,0.06
2013-2-27,34,33,31,32,31,28,96,92,84,29.78,29.67,9,4,17,0.03
2013-2-28,33,30,25,32,28,20,96,91,80,30.14,29.75,21,9,24,0.04
2013-3-1,27,23,20,22,18,15,87,82,74,30.28,30.14,14,6,19,0.00
2013-3-2,26,21,13,22,17,9,89,84,78,30.26,30.18,19,6,22,0.00
2013-3-3,26,23,22,20,18,15,87,81,74,30.17,30.12,17,8,19,0.01
2013-3-4,29,22,15,23,18,12,90,84,70,30.23,30.16,12,3,15,0.01
2013-3-5,34,22,8,27,17,6,92,83,67,30.22,30.04,9,2,13,0.01
2013-3-6,35,31,26,31,28,23,96,90,85,30.33,30.13,19,7,23,0.01
2013-3-7,28,27,25,27,24,22,96,87,80,30.50,30.33,19,6,22,0.00
2013-3-8,36,27,18,29,24,16,94,86,74,30.56,30.41,10,2,12,0.00
2013-3-9,42,34,22,34,27,21,94,79,57,30.40,29.95,7,2,14,0.22
2013-3-10,41,37,34,40,36,34,98,95,90,29.95,29.80,8,0,15,0.21
2013-3-11,41,37,32,40,36,31,98,97,95,29.80,29.48,0,0,2,0.09
2013-3-12,32,29,24,31,26,22,97,89,78,29.92,29.59,0,0,2,0.10
2013-3-13,30,26,23,25,23,19,95,86,66,30.27,29.91,2,0,4,0.01
2013-3-14,35,31,28,29,24,21,82,77,71,30.29,30.04,1,0,4,0.00
2013-3-15,35,31,24,32,26,17,94,83,72,30.03,29.91,0,0,0,0.00
2013-3-16,27,23,20,22,18,14,91,80,66,30.09,29.94,0,0,0,0.03
2013-3-17,32,23,16,24,16,12,93,75,48,30.39,30.09,28,7,34,0.01
2013-3-18,41,28,18,31,22,12,94,79,48,30.24,29.53,8,2,13,0.00
2013-3-19,32,26,24,30,25,22,95,94,94,29.64,29.51,22,16,28,0.00
2013-3-20,26,25,24,23,21,18,93,84,77,29.96,29.92,19,12,28,0.00
2013-3-21,28,27,24,27,25,22,95,92,87,30.02,29.90,24,17,28,0.00
2013-3-22,32,29,26,29,26,22,92,88,83,30.10,30.00,17,9,21,0.01
2013-3-23,36,31,28,31,28,24,91,86,79,30.17,30.10,11,4,13,0.03
2013-3-24,36,32,26,29,26,23,90,81,65,30.14,29.89,12,3,14,0.00
2013-3-25,37,32,26,32,28,24,90,84,78,30.07,29.87,20,8,24,0.00
2013-3-26,39,35,34,34,32,30,93,89,79,30.21,30.06,15,10,19,0.00
2013-3-27,41,36,33,36,32,28,91,85,75,30.28,30.19,18,8,19,0.00
2013-3-28,43,36,30,36,30,25,86,79,68,30.33,30.28,9,3,12,0.00
2013-3-29,46,33,23,35,28,22,96,82,58,30.35,30.26,4,0,5,0.00
2013-3-30,48,36,25,41,29,22,94,75,46,30.26,29.82,20,5,29,0.11
2013-3-31,43,38,30,41,36,25,98,92,77,29.83,29.62,29,12,35,0.02
2013-4-1,32,28,26,25,22,18,85,77,67,30.14,29.83,30,17,34,0.02
2013-4-2,36,31,28,24,22,19,79,69,60,30.31,30.10,21,11,24,0.00
2013-4-3,30,29,28,22,21,19,76,71,63,30.41,30.30,21,17,26,0.00